createdAt,value
2018-12-16T00:02:28.256Z,10.73
2018-12-16T00:04:56.577Z,10.77
2018-12-16T00:07:25.129Z,10.53
2018-12-16T00:09:53.486Z,10.67
2018-12-16T00:12:21.832Z,10.57
2018-12-16T00:14:50.227Z,10.40
2018-12-16T00:17:18.589Z,10.20
2018-12-16T00:19:47.560Z,9.80
2018-12-16T00:22:15.967Z,11.23
2018-12-16T00:24:44.351Z,10.83
2018-12-16T00:27:13.001Z,10.77
2018-12-16T00:29:41.600Z,11.17
2018-12-16T00:32:09.925Z,11.40
2018-12-16T00:34:38.350Z,11.47
2018-12-16T00:37:07.039Z,10.17
2018-12-16T00:39:35.353Z,10.70
2018-12-16T00:42:03.680Z,10.97
2018-12-16T00:44:32.481Z,11.23
2018-12-16T00:47:00.781Z,10.07
2018-12-16T00:49:29.078Z,11.63
2018-12-16T00:51:57.528Z,12.10
2018-12-16T00:54:25.811Z,10.97
2018-12-16T00:56:54.110Z,12.20
2018-12-16T00:59:22.746Z,12.53
2018-12-16T01:01:51.119Z,12.47
2018-12-16T01:04:19.400Z,11.63
2018-12-16T01:06:48.084Z,11.73
2018-12-16T01:09:16.367Z,10.47
2018-12-16T01:11:44.686Z,11.10
2018-12-16T01:14:13.468Z,12.10
2018-12-16T01:16:41.765Z,11.57
2018-12-16T01:19:10.114Z,10.93
2018-12-16T01:21:38.601Z,10.40
2018-12-16T01:24:06.939Z,10.93
2018-12-16T01:26:35.315Z,10.00
2018-12-16T01:29:04.359Z,9.70
2018-12-16T01:31:32.683Z,10.30
2018-12-16T01:34:01.075Z,10.83
2018-12-16T01:36:29.640Z,9.83
2018-12-16T01:38:57.967Z,11.03
2018-12-16T01:41:26.270Z,10.53
2018-12-16T01:43:54.848Z,9.93
2018-12-16T01:46:23.124Z,10.20
2018-12-16T01:48:51.503Z,10.37
2018-12-16T01:51:20.058Z,9.93
2018-12-16T01:53:48.354Z,10.37
2018-12-16T01:56:16.636Z,10.07
2018-12-16T01:58:45.197Z,9.40
2018-12-16T02:01:13.489Z,10.00
2018-12-16T02:03:41.778Z,10.13
2018-12-16T02:06:10.308Z,10.60
2018-12-16T02:08:38.853Z,9.50
2018-12-16T02:11:07.180Z,9.30
2018-12-16T02:13:35.821Z,9.77
2018-12-16T02:16:04.171Z,9.17
2018-12-16T02:18:32.496Z,10.10
2018-12-16T02:21:01.356Z,11.07
2018-12-16T02:23:29.686Z,10.70
2018-12-16T02:25:57.980Z,10.53
2018-12-16T02:28:26.521Z,10.47
2018-12-16T02:30:54.836Z,9.80
2018-12-16T02:33:23.176Z,10.33
2018-12-16T02:35:51.907Z,9.93
2018-12-16T02:38:20.215Z,10.53
2018-12-16T02:40:48.512Z,10.53
2018-12-16T02:43:17.030Z,11.53
2018-12-16T02:45:45.354Z,10.23
2018-12-16T02:48:13.684Z,10.90
2018-12-16T02:50:42.187Z,9.80
2018-12-16T02:53:10.516Z,11.00
2018-12-16T02:55:38.820Z,9.53
2018-12-16T02:58:07.331Z,10.13
2018-12-16T03:00:35.685Z,11.73
2018-12-16T03:03:04.052Z,10.60
2018-12-16T03:05:32.770Z,9.90
2018-12-16T03:08:01.070Z,9.93
2018-12-16T03:10:29.387Z,10.97
2018-12-16T03:12:58.064Z,10.07
2018-12-16T03:15:26.521Z,9.53
2018-12-16T03:17:54.970Z,10.20
2018-12-16T03:20:23.390Z,10.07
2018-12-16T03:22:51.698Z,10.43
2018-12-16T03:25:20.261Z,10.20
2018-12-16T03:27:48.646Z,8.87
2018-12-16T03:30:17.054Z,10.27
2018-12-16T03:32:45.541Z,10.57
2018-12-16T03:35:13.990Z,10.67
2018-12-16T03:37:42.332Z,10.77
2018-12-16T03:40:10.734Z,10.47
2018-12-16T03:42:39.663Z,10.37
2018-12-16T03:45:08.528Z,10.07
2018-12-16T03:47:37.017Z,9.80
2018-12-16T03:50:05.412Z,10.83
2018-12-16T03:52:34.031Z,9.90
2018-12-16T03:55:02.333Z,10.03
2018-12-16T03:57:30.654Z,10.60
2018-12-16T03:59:59.196Z,9.93
2018-12-16T04:02:27.581Z,10.47
2018-12-16T04:04:55.892Z,10.83
2018-12-16T04:07:24.354Z,9.03
2018-12-16T04:09:52.643Z,9.40
2018-12-16T04:12:21.417Z,10.07
2018-12-16T04:14:50.274Z,10.60
2018-12-16T04:17:18.747Z,9.93
2018-12-16T04:19:47.048Z,9.43
2018-12-16T04:22:15.513Z,10.43
2018-12-16T04:24:43.916Z,8.00
2018-12-16T04:27:12.236Z,9.07
2018-12-16T04:29:40.850Z,8.60
2018-12-16T04:32:09.170Z,8.10
2018-12-16T04:34:37.473Z,8.90
2018-12-16T04:37:06.264Z,8.47
2018-12-16T04:39:34.574Z,7.43
2018-12-16T04:42:03.389Z,7.43
2018-12-16T04:44:32.348Z,6.70
2018-12-16T04:47:00.648Z,6.93
2018-12-16T04:49:28.999Z,6.60
2018-12-16T04:51:57.777Z,6.17
2018-12-16T04:54:26.241Z,6.40
2018-12-16T04:56:54.568Z,6.23
2018-12-16T04:59:23.005Z,5.97
2018-12-16T05:01:51.343Z,6.47
2018-12-16T05:04:19.703Z,5.53
2018-12-16T05:06:48.146Z,5.37
2018-12-16T05:09:16.445Z,4.67
2018-12-16T05:11:44.896Z,4.73
2018-12-16T05:14:13.363Z,4.70
2018-12-16T05:16:41.701Z,4.67
2018-12-16T05:19:10.394Z,4.77
2018-12-16T05:21:39.029Z,4.20
2018-12-16T05:24:07.364Z,3.67
2018-12-16T05:26:35.819Z,4.37
2018-12-16T05:29:04.506Z,3.73
2018-12-16T05:31:32.995Z,3.53
2018-12-16T05:34:01.340Z,3.93
2018-12-16T05:36:30.096Z,4.07
2018-12-16T05:38:58.402Z,3.37
2018-12-16T05:41:26.721Z,3.27
2018-12-16T05:43:55.225Z,3.30
2018-12-16T05:46:23.596Z,3.13
2018-12-16T05:48:51.934Z,3.00
2018-12-16T05:51:20.828Z,3.27
2018-12-16T05:53:49.420Z,2.60
2018-12-16T05:56:17.803Z,2.60
2018-12-16T05:58:46.309Z,2.50
2018-12-16T06:01:14.672Z,2.30
2018-12-16T06:03:43.042Z,2.80
2018-12-16T06:06:11.614Z,2.53
2018-12-16T06:08:39.959Z,2.43
2018-12-16T06:11:08.315Z,2.73
2018-12-16T06:13:37.140Z,2.43
2018-12-16T06:16:05.521Z,3.30
2018-12-16T06:18:33.824Z,2.50
2018-12-16T06:21:02.219Z,2.30
2018-12-16T06:23:30.555Z,3.00
2018-12-16T06:25:59.031Z,2.90
2018-12-16T06:28:27.571Z,2.50
2018-12-16T06:30:55.906Z,2.87
2018-12-16T06:33:24.201Z,2.37
2018-12-16T06:35:52.846Z,6.33
2018-12-16T06:38:21.376Z,3.77
2018-12-16T06:40:49.648Z,8.83
2018-12-16T06:43:18.139Z,5.00
2018-12-16T06:45:46.494Z,7.37
2018-12-16T06:48:14.802Z,8.13
2018-12-16T06:50:43.724Z,3.83
2018-12-16T06:53:12.040Z,3.83
2018-12-16T06:55:43.217Z,4.60
2018-12-16T06:58:08.786Z,5.00
2018-12-16T07:00:37.491Z,4.73
2018-12-16T07:03:06.059Z,2.77
2018-12-16T07:05:34.913Z,4.27
2018-12-16T07:08:03.260Z,3.90
2018-12-16T07:10:31.626Z,2.93
2018-12-16T07:13:00.214Z,3.33
2018-12-16T07:15:28.523Z,3.67
2018-12-16T07:17:56.836Z,3.70
2018-12-16T07:20:25.313Z,4.50
2018-12-16T07:22:53.735Z,4.33
2018-12-16T07:25:22.070Z,4.17
2018-12-16T07:27:50.736Z,4.23
2018-12-16T07:30:19.043Z,3.87
2018-12-16T07:32:47.633Z,4.10
2018-12-16T07:35:16.145Z,4.47
2018-12-16T07:37:44.591Z,4.67
2018-12-16T07:40:12.973Z,3.80
2018-12-16T07:42:41.828Z,3.70
2018-12-16T07:45:10.157Z,3.90
2018-12-16T07:47:38.493Z,3.67
2018-12-16T07:50:08.351Z,3.60
2018-12-16T07:52:36.644Z,3.33
2018-12-16T07:55:05.652Z,3.80
2018-12-16T07:57:34.375Z,3.53
2018-12-16T08:00:02.761Z,3.50
2018-12-16T08:02:31.079Z,3.50
2018-12-16T08:04:59.972Z,4.20
2018-12-16T08:07:28.353Z,3.10
2018-12-16T08:09:56.703Z,3.37
2018-12-16T08:12:25.258Z,3.57
2018-12-16T08:14:53.605Z,3.47
2018-12-16T08:17:21.970Z,3.70
2018-12-16T08:19:50.708Z,3.53
2018-12-16T08:22:19.047Z,3.50
2018-12-16T08:24:47.358Z,3.60
2018-12-16T08:27:16.135Z,3.87
2018-12-16T08:29:44.507Z,3.40
2018-12-16T08:32:12.769Z,3.03
2018-12-16T08:34:41.385Z,3.10
2018-12-16T08:37:09.768Z,3.23
2018-12-16T08:39:38.055Z,3.40
2018-12-16T08:42:06.714Z,3.90
2018-12-16T08:44:35.054Z,3.70
2018-12-16T08:47:03.437Z,3.03
2018-12-16T08:49:31.921Z,3.17
2018-12-16T08:52:00.309Z,2.93
2018-12-16T08:54:30.227Z,3.00
2018-12-16T08:56:57.290Z,3.27
2018-12-16T08:59:25.813Z,3.50
2018-12-16T09:01:54.156Z,3.50
2018-12-16T09:04:22.564Z,2.70
2018-12-16T09:06:50.881Z,3.00
2018-12-16T09:09:19.213Z,3.23
2018-12-16T09:11:47.583Z,2.97
2018-12-16T09:14:15.902Z,3.23
2018-12-16T09:16:44.230Z,3.43
2018-12-16T09:19:13.137Z,3.50
2018-12-16T09:21:41.503Z,3.33
2018-12-16T09:24:09.841Z,2.90
2018-12-16T09:26:38.432Z,2.80
2018-12-16T09:29:06.773Z,3.37
2018-12-16T09:31:35.609Z,2.67
2018-12-16T09:34:04.049Z,3.50
2018-12-16T09:36:32.407Z,3.33
2018-12-16T09:39:00.746Z,3.13
2018-12-16T09:41:29.228Z,3.17
2018-12-16T09:43:57.622Z,2.87
2018-12-16T09:46:25.937Z,2.80
2018-12-16T09:48:54.349Z,2.80
2018-12-16T09:51:23.001Z,3.40
2018-12-16T09:53:51.331Z,2.83
2018-12-16T09:56:19.985Z,3.57
2018-12-16T09:58:48.373Z,3.10
2018-12-16T10:01:16.740Z,4.17
2018-12-16T10:03:45.471Z,3.87
2018-12-16T10:06:13.807Z,4.00
2018-12-16T10:08:42.082Z,3.80
2018-12-16T10:11:11.833Z,4.30
2018-12-16T10:13:40.232Z,4.30
2018-12-16T10:16:08.596Z,3.73
2018-12-16T10:18:37.023Z,4.17
2018-12-16T10:21:05.479Z,3.80
2018-12-16T10:23:33.810Z,4.37
2018-12-16T10:26:02.243Z,4.30
2018-12-16T10:28:30.564Z,3.77
2018-12-16T10:30:59.134Z,4.70
2018-12-16T10:33:27.619Z,4.10
2018-12-16T10:35:55.952Z,4.00
2018-12-16T10:38:24.262Z,4.27
2018-12-16T10:40:52.737Z,4.30
2018-12-16T10:43:21.162Z,4.10
2018-12-16T10:45:49.483Z,4.03
2018-12-16T10:48:18.247Z,3.83
2018-12-16T10:50:46.489Z,4.47
2018-12-16T10:53:16.043Z,5.20
2018-12-16T10:55:44.551Z,4.03
2018-12-16T10:58:12.862Z,4.43
2018-12-16T11:00:46.917Z,3.87
2018-12-16T11:03:15.274Z,3.93
2018-12-16T11:05:43.644Z,3.93
2018-12-16T11:08:12.502Z,4.07
2018-12-16T11:10:40.811Z,4.57
2018-12-16T11:13:09.116Z,4.13
2018-12-16T11:15:37.604Z,4.87
2018-12-16T11:18:05.935Z,4.77
2018-12-16T11:20:34.257Z,4.60
2018-12-16T11:23:02.714Z,4.93
2018-12-16T11:25:32.006Z,4.73
2018-12-16T11:28:00.386Z,4.70
2018-12-16T11:30:28.980Z,4.93
2018-12-16T11:32:57.335Z,4.73
2018-12-16T11:35:25.850Z,4.63
2018-12-16T11:37:54.876Z,4.77
2018-12-16T11:40:23.202Z,4.83
2018-12-16T11:42:51.585Z,4.73
2018-12-16T11:45:20.116Z,4.33
2018-12-16T11:47:48.470Z,5.20
2018-12-16T11:50:16.765Z,4.53
2018-12-16T11:52:45.442Z,4.77
2018-12-16T11:55:13.779Z,4.43
2018-12-16T11:57:42.130Z,4.77
2018-12-16T12:00:10.748Z,4.57
2018-12-16T12:02:39.050Z,5.07
2018-12-16T12:05:07.532Z,4.87
2018-12-16T12:07:36.186Z,5.00
2018-12-16T12:10:05.705Z,4.43
2018-12-16T12:12:34.031Z,4.90
2018-12-16T12:15:03.001Z,5.17
2018-12-16T12:17:31.367Z,5.57
2018-12-16T12:20:00.032Z,5.20
2018-12-16T12:22:28.480Z,6.30
2018-12-16T12:24:57.007Z,6.17
2018-12-16T12:27:25.362Z,5.67
2018-12-16T12:29:53.916Z,5.93
2018-12-16T12:32:22.241Z,6.30
2018-12-16T12:34:51.169Z,6.10
2018-12-16T12:37:19.627Z,5.67
2018-12-16T12:39:47.934Z,6.10
2018-12-16T12:42:16.303Z,6.03
2018-12-16T12:44:44.683Z,5.77
2018-12-16T12:47:13.022Z,5.97
2018-12-16T12:49:44.930Z,5.83
2018-12-16T12:52:10.202Z,5.63
2018-12-16T12:54:38.544Z,5.50
2018-12-16T12:57:07.265Z,5.30
2018-12-16T12:59:35.694Z,5.93
2018-12-16T13:02:04.033Z,5.67
2018-12-16T13:04:32.426Z,6.60
2018-12-16T13:07:01.078Z,5.10
2018-12-16T13:09:29.362Z,4.90
2018-12-16T13:11:58.143Z,5.50
2018-12-16T13:14:26.825Z,5.50
2018-12-16T13:16:55.118Z,6.70
2018-12-16T13:19:23.562Z,6.50
2018-12-16T13:21:52.108Z,6.17
2018-12-16T13:24:20.634Z,6.07
2018-12-16T13:26:48.950Z,6.33
2018-12-16T13:29:17.548Z,6.30
2018-12-16T13:31:45.874Z,5.70
2018-12-16T13:34:14.200Z,5.87
2018-12-16T13:36:42.706Z,6.87
2018-12-16T13:39:11.202Z,6.13
2018-12-16T13:41:39.524Z,6.57
2018-12-16T13:44:08.586Z,7.30
2018-12-16T13:46:36.940Z,6.47
2018-12-16T13:49:05.251Z,6.83
2018-12-16T13:51:33.879Z,7.30
2018-12-16T13:54:02.230Z,7.80
2018-12-16T13:56:30.782Z,7.37
2018-12-16T13:58:59.186Z,7.93
2018-12-16T14:01:27.566Z,7.20
2018-12-16T14:03:55.853Z,8.00
2018-12-16T14:06:24.440Z,7.63
2018-12-16T14:08:52.772Z,8.47
2018-12-16T14:11:21.101Z,8.30
2018-12-16T14:13:49.639Z,7.90
2018-12-16T14:16:18.064Z,7.30
2018-12-16T14:18:46.489Z,8.03
2018-12-16T14:21:15.077Z,8.77
2018-12-16T14:23:43.377Z,7.67
2018-12-16T14:26:11.680Z,7.87
2018-12-16T14:28:40.457Z,7.90
2018-12-16T14:31:08.989Z,7.63
2018-12-16T14:33:37.358Z,7.57
2018-12-16T14:36:06.052Z,7.23
2018-12-16T14:38:34.414Z,6.47
2018-12-16T14:41:02.703Z,8.67
2018-12-16T14:43:31.342Z,9.40
2018-12-16T14:45:59.626Z,7.63
2018-12-16T14:48:27.962Z,6.37
2018-12-16T14:50:56.371Z,7.00
2018-12-16T14:53:24.898Z,5.37
2018-12-16T14:55:55.287Z,5.83
2018-12-16T14:58:22.223Z,5.27
2018-12-16T15:00:50.575Z,5.07
2018-12-16T15:03:18.946Z,4.47
2018-12-16T15:05:47.504Z,3.53
2018-12-16T15:08:15.880Z,3.53
2018-12-16T15:10:44.259Z,3.23
2018-12-16T15:13:12.790Z,3.13
2018-12-16T15:15:41.104Z,3.67
2018-12-16T15:18:09.525Z,3.23
2018-12-16T15:20:38.237Z,3.10
2018-12-16T15:23:06.611Z,2.70
2018-12-16T15:25:34.984Z,3.40
2018-12-16T15:28:03.824Z,2.90
2018-12-16T15:30:32.123Z,2.70
2018-12-16T15:33:00.512Z,2.83
2018-12-16T15:35:29.114Z,2.97
2018-12-16T15:37:57.428Z,2.70
2018-12-16T15:40:25.882Z,2.80
2018-12-16T15:42:54.569Z,2.20
2018-12-16T15:45:22.858Z,2.43
2018-12-16T15:47:51.778Z,2.73
2018-12-16T15:50:20.196Z,2.57
2018-12-16T15:52:48.552Z,2.70
2018-12-16T15:55:17.110Z,2.43
2018-12-16T15:57:45.754Z,2.50
2018-12-16T16:00:14.089Z,2.60
2018-12-16T16:02:42.421Z,2.10
2018-12-16T16:05:11.023Z,2.20
2018-12-16T16:07:39.451Z,2.43
2018-12-16T16:10:08.598Z,2.57
2018-12-16T16:12:37.133Z,2.53
2018-12-16T16:15:05.622Z,2.37
2018-12-16T16:17:33.961Z,2.63
2018-12-16T16:20:02.464Z,2.90
2018-12-16T16:22:30.894Z,2.67
2018-12-16T16:24:59.238Z,2.37
2018-12-16T16:27:27.841Z,3.27
2018-12-16T16:29:56.176Z,3.50
2018-12-16T16:32:24.495Z,3.17
2018-12-16T16:34:53.088Z,3.53
2018-12-16T16:37:21.464Z,3.77
2018-12-16T16:39:49.789Z,3.10
2018-12-16T16:42:18.381Z,3.23
2018-12-16T16:44:47.206Z,3.13
2018-12-16T16:47:15.591Z,2.73
2018-12-16T16:49:44.443Z,2.53
2018-12-16T16:52:12.766Z,2.60
2018-12-16T16:54:41.339Z,3.07
2018-12-16T16:57:09.887Z,2.77
2018-12-16T16:59:38.242Z,2.90
2018-12-16T17:02:06.682Z,2.70
2018-12-16T17:04:35.322Z,3.87
2018-12-16T17:07:03.707Z,4.33
2018-12-16T17:09:32.023Z,4.33
2018-12-16T17:12:00.921Z,3.00
2018-12-16T17:14:29.215Z,3.30
2018-12-16T17:16:57.648Z,3.83
2018-12-16T17:19:26.151Z,3.23
2018-12-16T17:21:54.528Z,3.20
2018-12-16T17:24:22.821Z,3.20
2018-12-16T17:26:51.289Z,3.77
2018-12-16T17:29:19.799Z,3.37
2018-12-16T17:31:48.084Z,3.47
2018-12-16T17:34:16.793Z,3.77
2018-12-16T17:36:45.155Z,3.73
2018-12-16T17:39:13.465Z,3.77
2018-12-16T17:41:42.048Z,4.30
2018-12-16T17:44:10.388Z,4.43
2018-12-16T17:46:38.806Z,4.13
2018-12-16T17:49:07.358Z,4.77
2018-12-16T17:51:35.698Z,4.50
2018-12-16T17:54:04.080Z,4.97
2018-12-16T17:56:37.017Z,5.07
2018-12-16T17:59:01.635Z,5.00
2018-12-16T18:01:30.011Z,4.83
2018-12-16T18:03:58.792Z,4.87
2018-12-16T18:06:27.219Z,4.60
2018-12-16T18:08:55.627Z,4.27
2018-12-16T18:11:24.279Z,4.50
2018-12-16T18:13:52.766Z,4.73
2018-12-16T18:16:21.177Z,4.80
2018-12-16T18:18:49.668Z,4.07
2018-12-16T18:21:18.144Z,4.67
2018-12-16T18:23:46.924Z,4.33
2018-12-16T18:26:15.611Z,4.63
2018-12-16T18:28:43.995Z,3.90
2018-12-16T18:31:12.324Z,3.10
2018-12-16T18:33:41.049Z,4.67
2018-12-16T18:36:09.443Z,3.93
2018-12-16T18:38:37.773Z,4.67
2018-12-16T18:41:06.224Z,3.90
2018-12-16T18:43:34.535Z,4.70
2018-12-16T18:46:03.041Z,4.53
2018-12-16T18:48:31.930Z,4.87
2018-12-16T18:51:00.247Z,4.73
2018-12-16T18:53:28.701Z,4.87
2018-12-16T18:55:57.369Z,5.53
2018-12-16T18:58:25.701Z,3.03
2018-12-16T19:00:54.025Z,4.03
2018-12-16T19:03:22.814Z,3.67
2018-12-16T19:05:51.161Z,4.03
2018-12-16T19:08:19.565Z,3.87
2018-12-16T19:10:48.424Z,4.20
2018-12-16T19:13:16.765Z,8.13
2018-12-16T19:15:45.105Z,5.23
2018-12-16T19:18:13.690Z,3.93
2018-12-16T19:20:42.167Z,4.10
2018-12-16T19:23:10.467Z,5.70
2018-12-16T19:25:39.435Z,10.80
2018-12-16T19:28:07.764Z,16.30
2018-12-16T19:30:36.323Z,7.53
2018-12-16T19:33:04.874Z,9.20
2018-12-16T19:35:33.162Z,19.90
2018-12-16T19:38:03.290Z,4.47
2018-12-16T19:40:30.036Z,5.33
2018-12-16T19:42:58.345Z,7.57
2018-12-16T19:45:26.761Z,4.80
2018-12-16T19:47:55.343Z,26.40
2018-12-16T19:50:23.853Z,3.37
2018-12-16T19:52:52.227Z,4.40
2018-12-16T19:55:20.780Z,4.23
2018-12-16T19:57:49.127Z,4.10
2018-12-16T20:00:17.502Z,23.70
2018-12-16T20:02:46.207Z,11.13
2018-12-16T20:05:19.835Z,6.67
2018-12-16T20:07:48.851Z,5.73
2018-12-16T20:10:17.450Z,11.00
2018-12-16T20:12:45.820Z,23.70
2018-12-16T20:15:14.386Z,15.80
2018-12-16T20:17:42.709Z,7.43
2018-12-16T20:20:11.059Z,20.37
2018-12-16T20:22:39.820Z,11.33
2018-12-16T20:25:08.190Z,5.57
2018-12-16T20:27:36.510Z,5.70
2018-12-16T20:30:06.094Z,3.53
2018-12-16T20:32:34.460Z,4.97
2018-12-16T20:35:02.853Z,3.47
2018-12-16T20:37:31.239Z,3.70
2018-12-16T20:39:59.575Z,3.20
2018-12-16T20:42:27.852Z,3.03
2018-12-16T20:44:56.262Z,4.40
2018-12-16T20:47:24.621Z,2.60
2018-12-16T20:49:52.935Z,2.27
2018-12-16T20:52:21.407Z,2.43
2018-12-16T20:54:49.721Z,2.80
2018-12-16T20:57:18.913Z,2.77
2018-12-16T20:59:47.181Z,2.87
2018-12-16T21:02:15.572Z,2.77
2018-12-16T21:04:44.085Z,2.70
2018-12-16T21:07:12.691Z,3.17
2018-12-16T21:09:41.016Z,2.03
2018-12-16T21:12:14.703Z,2.20
2018-12-16T21:14:48.342Z,2.60
2018-12-16T21:17:22.044Z,2.67
2018-12-16T21:19:50.391Z,1.83
2018-12-16T21:22:18.771Z,2.00
2018-12-16T21:24:47.278Z,1.83
2018-12-16T21:27:15.759Z,2.20
2018-12-16T21:29:44.105Z,1.73
2018-12-16T21:32:12.685Z,2.17
2018-12-16T21:34:41.046Z,2.23
2018-12-16T21:37:09.348Z,2.50
2018-12-16T21:39:37.753Z,2.10
2018-12-16T21:42:06.106Z,2.20
2018-12-16T21:44:34.435Z,2.00
2018-12-16T21:47:02.859Z,1.90
2018-12-16T21:49:31.240Z,2.37
2018-12-16T21:51:59.539Z,1.97
2018-12-16T21:54:28.082Z,2.10
2018-12-16T21:56:56.437Z,2.10
2018-12-16T21:59:24.763Z,2.80
2018-12-16T22:01:53.518Z,1.90
2018-12-16T22:04:21.857Z,2.20
2018-12-16T22:06:50.204Z,1.60
2018-12-16T22:09:19.109Z,2.30
2018-12-16T22:11:47.427Z,1.90
2018-12-16T22:14:15.712Z,2.37
2018-12-16T22:16:44.487Z,2.00
2018-12-16T22:19:12.780Z,1.90
2018-12-16T22:21:41.083Z,1.83
2018-12-16T22:24:09.621Z,2.17
2018-12-16T22:26:37.951Z,1.70
2018-12-16T22:29:06.243Z,2.03
2018-12-16T22:31:35.141Z,1.80
2018-12-16T22:34:03.673Z,1.67
2018-12-16T22:36:32.016Z,1.90
2018-12-16T22:39:00.719Z,2.00
2018-12-16T22:41:29.058Z,2.50
2018-12-16T22:43:57.628Z,2.10
2018-12-16T22:46:26.074Z,2.07
2018-12-16T22:48:54.685Z,2.10
2018-12-16T22:51:23.072Z,1.93
2018-12-16T22:53:51.748Z,1.83
2018-12-16T22:56:20.099Z,2.20
2018-12-16T22:58:54.152Z,2.40
2018-12-16T23:01:17.395Z,2.33
2018-12-16T23:03:45.718Z,1.80
2018-12-16T23:06:14.053Z,2.03
2018-12-16T23:08:42.653Z,2.37
2018-12-16T23:11:10.975Z,1.73
2018-12-16T23:13:39.330Z,2.10
2018-12-16T23:16:07.925Z,2.00
2018-12-16T23:18:36.284Z,2.00
2018-12-16T23:21:04.632Z,1.90
2018-12-16T23:23:33.205Z,2.00
2018-12-16T23:26:01.599Z,2.10
2018-12-16T23:28:29.974Z,2.00
2018-12-16T23:30:58.642Z,1.70
2018-12-16T23:33:27.023Z,1.53
2018-12-16T23:35:55.400Z,2.17
2018-12-16T23:38:23.935Z,1.77
2018-12-16T23:40:52.302Z,1.70
2018-12-16T23:43:20.629Z,1.67
2018-12-16T23:45:49.059Z,1.43
2018-12-16T23:48:17.370Z,2.00
2018-12-16T23:50:45.698Z,1.73
2018-12-16T23:53:14.521Z,1.70
2018-12-16T23:55:42.816Z,1.53
2018-12-16T23:58:11.363Z,1.73
